Главная страница
METAR-TAF:

METAR-TAF

Аэропорты :

Кейк

Kake, Аляска, США

широта: 56-57N, долгота: 133-54W, высота над уровнем моря: 52 м

Текущие метеонаблюдения

Эта сводка был подготовлена 48 минут назад, в 02:37 UTC
Ветер 9 Узел от юго-восточный с порывами до 17 Узел
Температура 9°C
Влажность 87%
Давление 1006 hPa
Видимость: 16.1 км
небольшая облачность на высоте 1600 фута
Рассеянная облачность на высоте 3000 фута
Сплошная облачность на высоте 7000 фута
небольшой дождь

METAR: PAFE 270237Z AUTO 14009G17KT 10SM -RA FEW016 BKN030 OVC070 09/07 A2970 RMK AO2 P0004 $

Время: 19:25 (03:25 UTC)


TAF: отсутствует

Метеонаблюдения и прогнозы для более 4000 аэропортов (сводки METAR и TAF).

Имеющиеся станции представлены на карте желтыми и красными точками.

Чтобы увидеть название станции, наведите на нее мышь.

Затем щелкните, чтобы увидеть метеонаблюдения и метеопрогнозы.

Управление картой: чтобы увеличить масштаб, щелкните зеленые кнопки с черным крестиком; чтобы уменьшить масштаб, щелкните зеленую кнопку с тире; для просмотра соседних карт щелкайте зеленые стрелки.


METAR-TAF: